createdAt,value
2023-04-09T00:01:02.805Z,15.32
2023-04-09T00:02:06.511Z,15.32
2023-04-09T00:03:10.144Z,15.33
2023-04-09T00:04:13.313Z,15.28
2023-04-09T00:05:16.687Z,15.26
2023-04-09T00:06:19.509Z,15.23
2023-04-09T00:07:22.845Z,15.22
2023-04-09T00:08:26.494Z,15.21
2023-04-09T00:09:29.301Z,15.22
2023-04-09T00:10:32.247Z,15.17
2023-04-09T00:11:35.140Z,15.12
2023-04-09T00:12:38.412Z,15.12
2023-04-09T00:13:41.496Z,15.08
2023-04-09T00:14:44.388Z,15.05
2023-04-09T00:15:47.510Z,15.00
2023-04-09T00:16:50.498Z,14.95
2023-04-09T00:17:53.249Z,14.93
2023-04-09T00:18:56.914Z,14.93
2023-04-09T00:20:00.334Z,14.90
2023-04-09T00:21:03.370Z,14.88
2023-04-09T00:22:06.557Z,14.90
2023-04-09T00:23:11.803Z,14.91
2023-04-09T00:24:16.325Z,14.93
2023-04-09T00:25:20.112Z,14.94
2023-04-09T00:26:23.827Z,14.96
2023-04-09T00:27:27.092Z,14.98
2023-04-09T00:28:30.594Z,14.99
2023-04-09T00:29:34.055Z,14.96
2023-04-09T00:30:37.513Z,14.91
2023-04-09T00:31:40.814Z,14.91
2023-04-09T00:32:43.700Z,14.94
2023-04-09T00:33:47.129Z,14.94
2023-04-09T00:34:51.381Z,14.93
2023-04-09T00:35:54.898Z,14.90
2023-04-09T00:36:57.882Z,14.87
2023-04-09T00:38:01.012Z,14.87
2023-04-09T00:39:03.888Z,14.85
2023-04-09T00:40:07.499Z,14.82
2023-04-09T00:41:10.854Z,14.84
2023-04-09T00:42:14.466Z,14.83
2023-04-09T00:43:20.758Z,14.83
2023-04-09T00:44:23.757Z,14.84
2023-04-09T00:45:26.695Z,14.85
2023-04-09T00:46:30.025Z,14.83
2023-04-09T00:47:33.669Z,14.81
2023-04-09T00:48:36.955Z,14.79
2023-04-09T00:49:40.143Z,14.77
2023-04-09T00:50:43.494Z,14.77
2023-04-09T00:51:47.081Z,14.74
2023-04-09T00:52:50.212Z,14.73
2023-04-09T00:53:53.536Z,14.74
2023-04-09T00:54:56.767Z,14.72
2023-04-09T00:55:59.755Z,14.79
2023-04-09T00:57:03.079Z,14.83
2023-04-09T00:58:06.701Z,14.83
2023-04-09T00:59:10.032Z,14.86
2023-04-09T01:00:13.813Z,14.90
2023-04-09T01:01:17.038Z,14.87
2023-04-09T01:02:20.510Z,14.85
2023-04-09T01:03:24.114Z,14.84
2023-04-09T01:04:27.476Z,14.74
2023-04-09T01:05:42.365Z,14.67
2023-04-09T01:06:51.281Z,14.58
2023-04-09T01:08:03.643Z,14.54
2023-04-09T01:09:12.748Z,14.53
2023-04-09T01:10:17.674Z,14.54
2023-04-09T01:11:34.115Z,14.51
2023-04-09T01:12:37.617Z,14.47
2023-04-09T01:13:47.431Z,14.42
2023-04-09T01:14:53.835Z,14.34
2023-04-09T01:15:57.792Z,14.31
2023-04-09T01:17:02.576Z,14.27
2023-04-09T01:18:09.161Z,14.22
2023-04-09T01:19:30.643Z,14.19
2023-04-09T01:20:37.162Z,14.10
2023-04-09T01:21:40.895Z,13.98
2023-04-09T01:22:46.943Z,13.72
2023-04-09T01:23:56.381Z,13.66
2023-04-09T01:25:02.746Z,13.64
2023-04-09T01:26:19.808Z,13.67
2023-04-09T01:27:29.197Z,13.64
2023-04-09T01:28:37.455Z,13.67
2023-04-09T01:29:42.624Z,13.70
2023-04-09T01:30:50.052Z,13.75
2023-04-09T01:31:53.153Z,13.76
2023-04-09T01:32:57.068Z,13.74
2023-04-09T01:34:00.863Z,13.73
2023-04-09T01:35:03.558Z,13.70
2023-04-09T01:36:07.205Z,13.68
2023-04-09T01:37:10.193Z,13.69
2023-04-09T01:38:13.488Z,13.71
2023-04-09T01:39:16.878Z,13.73
2023-04-09T01:40:20.110Z,13.75
2023-04-09T01:41:22.962Z,13.74
2023-04-09T01:42:26.188Z,13.77
2023-04-09T01:43:30.016Z,13.76
2023-04-09T01:44:33.122Z,13.76
2023-04-09T01:45:36.561Z,13.82
2023-04-09T01:46:40.299Z,13.82
2023-04-09T01:47:43.829Z,13.84
2023-04-09T01:48:47.056Z,13.85
2023-04-09T01:49:50.652Z,13.83
2023-04-09T01:50:54.128Z,13.82
2023-04-09T01:51:57.190Z,13.80
2023-04-09T01:53:01.200Z,13.82
2023-04-09T01:54:04.853Z,13.85
2023-04-09T01:55:08.616Z,13.87
2023-04-09T01:56:12.066Z,13.83
2023-04-09T01:57:15.290Z,13.83
2023-04-09T01:58:18.675Z,13.77
2023-04-09T01:59:21.728Z,13.77
2023-04-09T02:00:25.827Z,13.74
2023-04-09T02:01:32.960Z,13.70
2023-04-09T02:02:42.280Z,13.70
2023-04-09T02:03:49.813Z,13.70
2023-04-09T02:04:53.006Z,13.64
2023-04-09T02:05:56.486Z,13.61
2023-04-09T02:07:00.332Z,13.59
2023-04-09T02:08:03.556Z,13.55
2023-04-09T02:09:07.915Z,13.53
2023-04-09T02:10:11.309Z,13.50
2023-04-09T02:11:15.022Z,13.48
2023-04-09T02:12:19.090Z,13.44
2023-04-09T02:13:22.514Z,13.44
2023-04-09T02:14:26.365Z,13.48
2023-04-09T02:15:29.864Z,13.51
2023-04-09T02:16:33.734Z,13.53
2023-04-09T02:17:37.349Z,13.57
2023-04-09T02:18:40.733Z,13.61
2023-04-09T02:19:45.217Z,13.62
2023-04-09T02:20:49.734Z,13.65
2023-04-09T02:21:53.117Z,13.67
2023-04-09T02:22:56.242Z,13.64
2023-04-09T02:23:59.238Z,13.67
2023-04-09T02:25:02.538Z,13.69
2023-04-09T02:26:05.541Z,13.69
2023-04-09T02:27:09.170Z,13.71
2023-04-09T02:28:13.377Z,13.75
2023-04-09T02:29:16.136Z,13.74
2023-04-09T02:30:19.291Z,13.73
2023-04-09T02:31:22.452Z,13.72
2023-04-09T02:32:25.369Z,13.73
2023-04-09T02:33:28.467Z,13.72
2023-04-09T02:34:31.302Z,13.67
2023-04-09T02:35:34.409Z,13.64
2023-04-09T02:36:37.875Z,13.59
2023-04-09T02:37:41.612Z,13.57
2023-04-09T02:38:44.565Z,13.58
2023-04-09T02:39:47.453Z,13.65
2023-04-09T02:40:50.558Z,13.67
2023-04-09T02:41:53.937Z,13.68
2023-04-09T02:42:57.043Z,13.73
2023-04-09T02:43:59.851Z,13.75
2023-04-09T02:45:03.208Z,13.76
2023-04-09T02:46:08.074Z,13.79
2023-04-09T02:47:12.563Z,13.81
2023-04-09T02:48:15.885Z,13.75
2023-04-09T02:49:20.504Z,13.74
2023-04-09T02:50:23.771Z,13.72
2023-04-09T02:51:28.602Z,13.71
2023-04-09T02:52:31.510Z,13.67
2023-04-09T02:53:34.758Z,13.67
2023-04-09T02:54:37.886Z,13.66
2023-04-09T02:55:41.115Z,13.65
2023-04-09T02:56:44.098Z,13.66
2023-04-09T02:57:47.220Z,13.60
2023-04-09T02:58:54.542Z,13.38
2023-04-09T02:59:57.999Z,13.16
2023-04-09T03:01:00.905Z,13.14
2023-04-09T03:02:04.083Z,13.08
2023-04-09T03:03:08.961Z,13.01
2023-04-09T03:04:12.485Z,12.96
2023-04-09T03:05:15.440Z,12.93
2023-04-09T03:06:19.369Z,12.89
2023-04-09T03:07:23.538Z,12.89
2023-04-09T03:08:26.889Z,12.92
2023-04-09T03:09:31.322Z,12.95
2023-04-09T03:10:34.457Z,13.00
2023-04-09T03:11:37.306Z,13.05
2023-04-09T03:12:40.677Z,13.11
2023-04-09T03:13:44.385Z,13.17
2023-04-09T03:14:47.347Z,13.23
2023-04-09T03:15:53.770Z,13.32
2023-04-09T03:16:57.188Z,13.35
2023-04-09T03:18:00.415Z,13.40
2023-04-09T03:19:04.063Z,13.44
2023-04-09T03:20:07.792Z,13.48
2023-04-09T03:21:14.989Z,13.50
2023-04-09T03:22:23.984Z,13.50
2023-04-09T03:23:29.274Z,13.53
2023-04-09T03:24:35.538Z,13.54
2023-04-09T03:25:41.915Z,13.50
2023-04-09T03:26:50.427Z,13.45
2023-04-09T03:27:53.638Z,13.45
2023-04-09T03:29:06.411Z,13.45
2023-04-09T03:30:09.733Z,13.44
2023-04-09T03:31:19.917Z,13.43
2023-04-09T03:32:23.722Z,13.40
2023-04-09T03:33:26.965Z,13.38
2023-04-09T03:34:32.270Z,13.37
2023-04-09T03:35:35.972Z,13.39
2023-04-09T03:36:39.520Z,13.45
2023-04-09T03:37:51.533Z,13.52
2023-04-09T03:38:55.150Z,13.54
2023-04-09T03:40:04.919Z,13.58
2023-04-09T03:41:08.333Z,13.59
2023-04-09T03:42:11.977Z,13.61
2023-04-09T03:43:22.615Z,13.68
2023-04-09T03:44:28.295Z,13.70
2023-04-09T03:45:39.838Z,13.70
2023-04-09T03:47:09.683Z,13.75
2023-04-09T03:48:14.896Z,13.73
2023-04-09T03:49:18.339Z,13.74
2023-04-09T03:50:22.049Z,13.73
2023-04-09T03:51:29.243Z,13.71
2023-04-09T03:52:34.912Z,13.72
2023-04-09T03:53:42.514Z,13.73
2023-04-09T03:54:45.732Z,13.78
2023-04-09T03:55:53.945Z,13.80
2023-04-09T03:57:02.363Z,13.79
2023-04-09T03:58:05.983Z,13.77
2023-04-09T03:59:11.777Z,13.78
2023-04-09T04:00:18.250Z,13.79
2023-04-09T04:01:26.755Z,13.80
2023-04-09T04:02:34.444Z,13.80
2023-04-09T04:03:40.569Z,13.82
2023-04-09T04:04:52.419Z,13.83
2023-04-09T04:06:01.279Z,13.82
2023-04-09T04:07:08.583Z,13.79
2023-04-09T04:08:25.844Z,13.75
2023-04-09T04:09:29.139Z,13.72
2023-04-09T04:10:45.953Z,13.69
2023-04-09T04:11:52.524Z,13.69
2023-04-09T04:12:58.629Z,13.67
2023-04-09T04:14:08.467Z,13.66
2023-04-09T04:15:12.161Z,13.65
2023-04-09T04:16:26.289Z,13.63
2023-04-09T04:17:31.042Z,13.64
2023-04-09T04:18:35.115Z,13.67
2023-04-09T04:19:38.815Z,13.67
2023-04-09T04:20:41.925Z,13.69
2023-04-09T04:21:48.861Z,13.70
2023-04-09T04:22:52.597Z,13.70
2023-04-09T04:23:57.805Z,13.71
2023-04-09T04:25:04.950Z,13.72
2023-04-09T04:26:10.632Z,13.73
2023-04-09T04:27:14.251Z,13.72
2023-04-09T04:28:17.207Z,13.70
2023-04-09T04:29:20.577Z,13.66
2023-04-09T04:30:29.727Z,13.59
2023-04-09T04:31:39.874Z,13.59
2023-04-09T04:32:43.758Z,13.52
2023-04-09T04:33:48.072Z,13.47
2023-04-09T04:34:52.146Z,13.45
2023-04-09T04:36:08.101Z,13.42
2023-04-09T04:37:15.612Z,13.42
2023-04-09T04:38:19.182Z,13.39
2023-04-09T04:39:22.505Z,13.38
2023-04-09T04:40:31.551Z,13.43
2023-04-09T04:41:38.727Z,13.39
2023-04-09T04:43:02.866Z,13.42
2023-04-09T04:44:06.060Z,13.44
2023-04-09T04:45:09.871Z,13.45
2023-04-09T04:46:43.713Z,13.46
2023-04-09T04:47:47.331Z,13.44
2023-04-09T04:48:51.494Z,13.44
2023-04-09T04:49:55.016Z,13.42
2023-04-09T04:50:59.122Z,13.40
2023-04-09T04:52:07.376Z,13.44
2023-04-09T04:53:11.005Z,13.47
2023-04-09T04:54:23.887Z,13.48
2023-04-09T04:55:30.936Z,13.47
2023-04-09T04:56:37.561Z,13.45
2023-04-09T04:57:51.707Z,13.42
2023-04-09T04:58:57.576Z,13.38
2023-04-09T05:00:00.970Z,13.32
2023-04-09T05:01:04.726Z,13.25
2023-04-09T05:02:08.726Z,13.20
2023-04-09T05:03:24.079Z,13.17
2023-04-09T05:04:57.463Z,13.04
2023-04-09T05:06:07.965Z,13.02
2023-04-09T05:07:17.576Z,13.01
2023-04-09T05:08:26.376Z,13.03
2023-04-09T05:09:31.761Z,13.10
2023-04-09T05:10:44.768Z,13.13
2023-04-09T05:11:49.081Z,13.15
2023-04-09T05:12:56.248Z,13.16
2023-04-09T05:14:10.956Z,13.17
2023-04-09T05:15:14.704Z,13.20
2023-04-09T05:16:19.089Z,13.23
2023-04-09T05:17:28.022Z,13.25
2023-04-09T05:18:31.371Z,13.27
2023-04-09T05:19:34.620Z,13.32
2023-04-09T05:20:39.312Z,13.36
2023-04-09T05:21:46.739Z,13.39
2023-04-09T05:22:56.250Z,13.43
2023-04-09T05:24:08.310Z,13.47
2023-04-09T05:25:12.015Z,13.50
2023-04-09T05:26:17.864Z,13.51
2023-04-09T05:27:28.779Z,13.53
2023-04-09T05:28:36.716Z,13.54
2023-04-09T05:29:47.163Z,13.56
2023-04-09T05:30:50.070Z,13.58
2023-04-09T05:31:54.779Z,13.59
2023-04-09T05:33:08.928Z,13.59
2023-04-09T05:34:12.436Z,13.61
2023-04-09T05:35:25.649Z,13.62
2023-04-09T05:36:28.933Z,13.58
2023-04-09T05:37:32.069Z,13.58
2023-04-09T05:38:35.490Z,13.61
2023-04-09T05:39:38.612Z,13.67
2023-04-09T05:40:42.882Z,13.66
2023-04-09T05:41:48.901Z,13.67
2023-04-09T05:43:17.934Z,13.70
2023-04-09T05:44:21.697Z,13.74
2023-04-09T05:45:29.264Z,13.77
2023-04-09T05:46:32.756Z,13.78
2023-04-09T05:47:37.135Z,13.81
2023-04-09T05:48:49.227Z,13.80
2023-04-09T05:49:53.068Z,13.79
2023-04-09T05:50:57.165Z,13.81
2023-04-09T05:52:03.408Z,13.84
2023-04-09T05:53:08.759Z,13.82
2023-04-09T05:54:16.076Z,13.82
2023-04-09T05:55:18.986Z,13.82
2023-04-09T05:56:29.065Z,13.82
2023-04-09T05:57:33.454Z,13.82
2023-04-09T05:58:40.482Z,13.85
2023-04-09T05:59:43.359Z,13.81
2023-04-09T06:00:46.579Z,13.80
2023-04-09T06:01:49.834Z,13.75
2023-04-09T06:02:53.501Z,13.71
2023-04-09T06:03:58.198Z,13.69
2023-04-09T06:05:04.664Z,13.69
2023-04-09T06:06:07.920Z,13.70
2023-04-09T06:07:11.693Z,13.73
2023-04-09T06:08:14.804Z,13.75
2023-04-09T06:09:18.227Z,13.77
2023-04-09T06:10:22.671Z,13.76
2023-04-09T06:11:26.521Z,13.74
2023-04-09T06:12:29.430Z,13.69
2023-04-09T06:13:33.236Z,13.66
2023-04-09T06:14:36.671Z,13.63
2023-04-09T06:15:40.029Z,13.55
2023-04-09T06:16:43.146Z,13.45
2023-04-09T06:17:46.907Z,13.44
2023-04-09T06:18:51.898Z,13.40
2023-04-09T06:19:55.399Z,13.32
2023-04-09T06:21:04.924Z,13.31
2023-04-09T06:22:10.730Z,13.30
2023-04-09T06:23:14.341Z,13.24
2023-04-09T06:24:17.653Z,13.27
2023-04-09T06:25:21.217Z,13.28
2023-04-09T06:26:24.839Z,13.29
2023-04-09T06:27:27.827Z,13.29
2023-04-09T06:28:32.482Z,13.24
2023-04-09T06:29:36.040Z,13.17
2023-04-09T06:30:39.787Z,13.14
2023-04-09T06:31:43.626Z,13.14
2023-04-09T06:32:54.487Z,12.95
2023-04-09T06:33:58.153Z,12.93
2023-04-09T06:35:00.990Z,13.00
2023-04-09T06:36:04.178Z,13.05
2023-04-09T06:37:07.125Z,12.97
2023-04-09T06:38:11.308Z,12.87
2023-04-09T06:39:14.895Z,12.87
2023-04-09T06:40:19.220Z,12.88
2023-04-09T06:41:23.870Z,12.75
2023-04-09T06:42:27.455Z,12.84
2023-04-09T06:43:43.169Z,12.61
2023-04-09T06:44:46.979Z,12.66
2023-04-09T06:45:49.812Z,12.76
2023-04-09T06:46:52.746Z,12.84
2023-04-09T06:47:56.409Z,12.87
2023-04-09T06:48:59.698Z,12.88
2023-04-09T06:50:03.386Z,12.77
2023-04-09T06:51:08.026Z,12.71
2023-04-09T06:52:10.775Z,12.71
2023-04-09T06:53:15.804Z,12.76
2023-04-09T06:54:18.956Z,12.77
2023-04-09T06:55:22.465Z,12.88
2023-04-09T06:56:25.952Z,12.99
2023-04-09T06:57:28.662Z,13.06
2023-04-09T06:58:31.894Z,13.12
2023-04-09T06:59:34.763Z,13.17
2023-04-09T07:00:37.596Z,13.20
2023-04-09T07:01:42.400Z,13.22
2023-04-09T07:02:45.931Z,13.29
2023-04-09T07:03:49.178Z,13.38
2023-04-09T07:04:52.761Z,13.43
2023-04-09T07:05:55.894Z,13.52
2023-04-09T07:07:00.182Z,13.62
2023-04-09T07:08:03.180Z,13.71
2023-04-09T07:09:06.285Z,13.75
2023-04-09T07:10:09.480Z,13.82
2023-04-09T07:11:12.993Z,13.91
2023-04-09T07:12:17.352Z,14.02
2023-04-09T07:13:20.667Z,14.12
2023-04-09T07:14:24.258Z,14.23
2023-04-09T07:15:27.100Z,14.30
2023-04-09T07:16:30.704Z,14.40
2023-04-09T07:17:34.262Z,14.41
2023-04-09T07:18:37.762Z,14.53
2023-04-09T07:19:40.883Z,14.68
2023-04-09T07:20:43.925Z,14.78
2023-04-09T07:21:47.113Z,14.89
2023-04-09T07:22:50.362Z,14.98
2023-04-09T07:23:54.197Z,15.07
2023-04-09T07:24:57.485Z,15.16
2023-04-09T07:26:02.538Z,15.21
2023-04-09T07:27:06.122Z,15.13
2023-04-09T07:28:09.302Z,15.10
2023-04-09T07:29:12.594Z,15.21
2023-04-09T07:30:16.423Z,15.29
2023-04-09T07:31:19.491Z,15.42
2023-04-09T07:32:23.020Z,15.61
2023-04-09T07:33:26.290Z,15.66
2023-04-09T07:34:29.212Z,15.72
2023-04-09T07:35:33.970Z,15.86
2023-04-09T07:36:37.119Z,15.82
2023-04-09T07:37:40.589Z,15.75
2023-04-09T07:38:44.227Z,15.83
2023-04-09T07:39:47.254Z,15.84
2023-04-09T07:40:50.316Z,15.75
2023-04-09T07:41:53.902Z,15.49
2023-04-09T07:42:59.103Z,15.53
2023-04-09T07:44:04.404Z,15.74
2023-04-09T07:45:07.962Z,16.08
2023-04-09T07:46:11.073Z,16.18
2023-04-09T07:47:14.499Z,16.43
2023-04-09T07:48:17.344Z,16.50
2023-04-09T07:49:20.206Z,16.60
2023-04-09T07:50:23.503Z,16.48
2023-04-09T07:51:27.185Z,16.35
2023-04-09T07:52:30.544Z,16.37
2023-04-09T07:53:33.920Z,16.65
2023-04-09T07:54:37.304Z,16.81
2023-04-09T07:55:41.221Z,16.94
2023-04-09T07:56:44.740Z,17.04
2023-04-09T07:57:49.411Z,16.92
2023-04-09T07:58:52.933Z,16.84
2023-04-09T07:59:56.620Z,16.92
2023-04-09T08:01:00.002Z,16.92
2023-04-09T08:02:03.161Z,16.99
2023-04-09T08:03:06.948Z,17.12
2023-04-09T08:04:10.773Z,17.20
2023-04-09T08:05:14.314Z,17.23
2023-04-09T08:06:17.865Z,17.26
2023-04-09T08:07:20.790Z,17.33
2023-04-09T08:08:24.213Z,17.41
2023-04-09T08:09:27.502Z,17.45
2023-04-09T08:10:30.909Z,17.55
2023-04-09T08:11:34.008Z,17.75
2023-04-09T08:12:37.262Z,18.04
2023-04-09T08:13:41.410Z,18.49
2023-04-09T08:14:44.640Z,19.13
2023-04-09T08:15:47.527Z,19.69
2023-04-09T08:16:51.258Z,20.12
2023-04-09T08:17:54.607Z,20.67
2023-04-09T08:18:58.012Z,20.94
2023-04-09T08:20:01.284Z,20.83
2023-04-09T08:21:07.027Z,20.66
2023-04-09T08:22:10.279Z,20.76
2023-04-09T08:23:13.178Z,20.63
2023-04-09T08:24:16.649Z,20.58
2023-04-09T08:25:19.602Z,20.17
2023-04-09T08:26:22.913Z,20.40
2023-04-09T08:27:26.694Z,20.61
2023-04-09T08:28:29.856Z,20.64
2023-04-09T08:29:32.739Z,20.76
2023-04-09T08:30:36.164Z,20.71
2023-04-09T08:31:39.938Z,20.86
2023-04-09T08:32:43.604Z,20.79
2023-04-09T08:33:46.808Z,21.16
2023-04-09T08:34:49.965Z,21.42
2023-04-09T08:35:53.115Z,21.60
2023-04-09T08:36:56.645Z,22.32
2023-04-09T08:38:00.233Z,22.91
2023-04-09T08:39:03.894Z,23.68
2023-04-09T08:40:07.615Z,24.20
2023-04-09T08:41:17.308Z,24.84
2023-04-09T08:42:20.355Z,25.46
2023-04-09T08:43:26.964Z,26.09
2023-04-09T08:44:37.669Z,25.61
2023-04-09T08:45:41.337Z,26.47
2023-04-09T08:46:44.206Z,27.30
2023-04-09T08:47:47.856Z,27.90
2023-04-09T08:48:51.943Z,28.38
2023-04-09T08:49:55.082Z,28.66
2023-04-09T08:50:58.473Z,29.13
2023-04-09T08:52:01.817Z,29.51
2023-04-09T08:53:05.573Z,29.87
2023-04-09T08:54:08.521Z,29.48
2023-04-09T08:55:11.733Z,29.52
2023-04-09T08:56:15.540Z,29.93
2023-04-09T08:57:19.210Z,30.09
2023-04-09T08:58:22.428Z,29.75
2023-04-09T08:59:25.910Z,29.89
2023-04-09T09:00:28.967Z,29.92
2023-04-09T09:01:33.514Z,29.98
2023-04-09T09:02:36.757Z,29.82
2023-04-09T09:03:54.263Z,29.91
2023-04-09T09:05:01.370Z,30.14
2023-04-09T09:06:04.786Z,30.57
2023-04-09T09:07:08.367Z,30.60
2023-04-09T09:08:31.951Z,30.57
2023-04-09T09:09:35.397Z,30.92
2023-04-09T09:10:39.666Z,31.14
2023-04-09T09:11:46.595Z,31.53
2023-04-09T09:12:50.181Z,31.40
2023-04-09T09:13:58.899Z,31.23
2023-04-09T09:15:02.348Z,30.89
2023-04-09T09:16:15.730Z,30.80
2023-04-09T09:17:18.735Z,31.01
2023-04-09T09:18:22.550Z,31.74
2023-04-09T09:19:25.519Z,32.07
2023-04-09T09:20:28.406Z,32.00
2023-04-09T09:21:31.776Z,31.76
2023-04-09T09:22:55.225Z,31.84
2023-04-09T09:23:59.361Z,32.47
2023-04-09T09:25:02.695Z,33.04
2023-04-09T09:26:15.201Z,33.45
2023-04-09T09:27:41.393Z,33.74
2023-04-09T09:28:45.957Z,34.20
2023-04-09T09:29:49.563Z,34.64
2023-04-09T09:30:52.417Z,35.07
2023-04-09T09:31:56.728Z,35.31
2023-04-09T09:33:07.096Z,35.61
2023-04-09T09:34:10.738Z,35.87
2023-04-09T09:35:14.360Z,36.08
2023-04-09T09:36:21.256Z,36.13
2023-04-09T09:37:27.927Z,36.40
2023-04-09T09:38:31.709Z,36.64
2023-04-09T09:39:52.722Z,36.93
2023-04-09T09:40:55.788Z,37.24
2023-04-09T09:42:08.460Z,37.37
2023-04-09T09:43:13.444Z,37.53
2023-04-09T09:44:44.358Z,37.69
2023-04-09T09:45:47.470Z,37.94
2023-04-09T09:46:50.652Z,38.03
2023-04-09T09:47:54.938Z,38.00
2023-04-09T09:48:57.940Z,38.12
2023-04-09T09:50:00.918Z,38.21
2023-04-09T09:51:04.691Z,38.28
2023-04-09T09:52:09.260Z,38.38
2023-04-09T09:53:12.313Z,38.41
2023-04-09T09:54:15.936Z,38.50
2023-04-09T09:55:19.105Z,38.59
2023-04-09T09:56:33.244Z,38.64
2023-04-09T09:57:36.934Z,38.55
2023-04-09T09:58:43.155Z,38.46
2023-04-09T09:59:53.207Z,38.06
2023-04-09T10:00:57.975Z,37.36
2023-04-09T10:02:02.041Z,37.05
2023-04-09T10:03:09.174Z,37.15
2023-04-09T10:04:14.216Z,37.26
2023-04-09T10:05:17.463Z,37.26
2023-04-09T10:06:20.777Z,37.41
2023-04-09T10:07:25.059Z,37.47
2023-04-09T10:08:28.966Z,36.01
2023-04-09T10:09:32.814Z,36.74
2023-04-09T10:10:35.982Z,36.99
2023-04-09T10:11:39.328Z,37.35
2023-04-09T10:12:42.857Z,37.64
2023-04-09T10:13:50.380Z,38.00
2023-04-09T10:14:55.048Z,38.27
2023-04-09T10:15:58.520Z,38.44
2023-04-09T10:17:03.012Z,38.60
2023-04-09T10:18:06.087Z,38.85
2023-04-09T10:19:14.556Z,38.97
2023-04-09T10:20:21.448Z,39.10
2023-04-09T10:21:27.414Z,37.54
2023-04-09T10:22:30.781Z,37.62
2023-04-09T10:23:43.453Z,37.99
2023-04-09T10:24:46.609Z,38.34
2023-04-09T10:25:49.640Z,38.56
2023-04-09T10:26:55.521Z,38.44
2023-04-09T10:28:02.083Z,38.65
2023-04-09T10:29:09.119Z,38.38
2023-04-09T10:30:33.006Z,38.44
2023-04-09T10:31:52.588Z,38.56
2023-04-09T10:32:55.938Z,38.59
2023-04-09T10:34:04.937Z,38.62
2023-04-09T10:35:08.694Z,38.87
2023-04-09T10:36:13.210Z,39.13
2023-04-09T10:37:17.896Z,39.26
2023-04-09T10:38:36.674Z,39.29
2023-04-09T10:39:40.294Z,39.28
2023-04-09T10:40:52.995Z,39.37
2023-04-09T10:41:56.401Z,39.30
2023-04-09T10:42:59.521Z,38.52
2023-04-09T10:44:02.770Z,38.33
2023-04-09T10:45:07.271Z,37.94
2023-04-09T10:46:27.535Z,38.22
2023-04-09T10:47:34.962Z,38.32
2023-04-09T10:48:38.646Z,38.24
2023-04-09T10:49:42.084Z,37.72
2023-04-09T10:50:45.773Z,37.75
2023-04-09T10:51:49.414Z,37.40
2023-04-09T10:52:55.796Z,36.21
2023-04-09T10:53:58.933Z,36.65
2023-04-09T10:55:02.197Z,36.06
2023-04-09T10:56:06.955Z,36.62
2023-04-09T10:57:10.220Z,36.79
2023-04-09T10:58:13.957Z,37.31
2023-04-09T10:59:17.661Z,37.61
2023-04-09T11:00:20.715Z,37.88
2023-04-09T11:01:25.135Z,37.70
2023-04-09T11:02:41.861Z,37.94
2023-04-09T11:03:45.494Z,38.00
2023-04-09T11:04:48.732Z,36.87
2023-04-09T11:05:53.324Z,37.37
2023-04-09T11:06:56.044Z,37.08
2023-04-09T11:08:06.074Z,37.32
2023-04-09T11:09:09.656Z,36.95
2023-04-09T11:10:13.085Z,36.76
2023-04-09T11:11:17.196Z,37.17
2023-04-09T11:12:20.679Z,37.36
2023-04-09T11:13:24.121Z,37.63
2023-04-09T11:14:28.021Z,37.57
2023-04-09T11:15:31.675Z,37.22
2023-04-09T11:16:35.108Z,37.33
2023-04-09T11:17:38.077Z,37.47
2023-04-09T11:18:41.371Z,37.63
2023-04-09T11:19:44.893Z,37.48
2023-04-09T11:20:48.225Z,37.64
2023-04-09T11:21:51.849Z,37.11
2023-04-09T11:22:55.982Z,36.60
2023-04-09T11:23:59.208Z,36.17
2023-04-09T11:25:02.385Z,35.84
2023-04-09T11:26:05.935Z,36.12
2023-04-09T11:27:08.993Z,36.19
2023-04-09T11:28:12.582Z,36.05
2023-04-09T11:29:16.248Z,36.22
2023-04-09T11:30:19.353Z,35.98
2023-04-09T11:31:27.776Z,35.97
2023-04-09T11:32:33.821Z,36.21
2023-04-09T11:33:36.831Z,35.35
2023-04-09T11:34:40.257Z,35.30
2023-04-09T11:35:43.133Z,35.30
2023-04-09T11:36:49.436Z,35.63
2023-04-09T11:37:53.048Z,36.09
2023-04-09T11:38:56.984Z,36.16
2023-04-09T11:39:59.836Z,35.96
2023-04-09T11:41:03.191Z,36.24
2023-04-09T11:42:06.340Z,36.33
2023-04-09T11:43:09.727Z,36.48
2023-04-09T11:44:13.130Z,35.90
2023-04-09T11:45:16.253Z,35.93
2023-04-09T11:46:19.241Z,35.66
2023-04-09T11:47:22.186Z,35.74
2023-04-09T11:48:25.395Z,35.61
2023-04-09T11:49:28.275Z,35.51
2023-04-09T11:50:31.244Z,35.49
2023-04-09T11:51:36.470Z,35.15
2023-04-09T11:52:39.352Z,34.82
2023-04-09T11:53:42.900Z,34.18
2023-04-09T11:54:50.516Z,33.79
2023-04-09T11:55:54.154Z,33.88
2023-04-09T11:56:57.217Z,34.01
2023-04-09T11:58:03.498Z,34.23
2023-04-09T11:59:06.804Z,34.38
2023-04-09T12:00:10.668Z,34.03
2023-04-09T12:01:13.751Z,33.96
2023-04-09T12:02:18.178Z,33.66
2023-04-09T12:03:22.293Z,33.16
2023-04-09T12:04:25.899Z,32.64
2023-04-09T12:05:29.587Z,32.58
2023-04-09T12:06:32.804Z,32.94
2023-04-09T12:07:36.635Z,33.02
2023-04-09T12:08:40.092Z,32.88
2023-04-09T12:09:49.417Z,33.33
2023-04-09T12:10:53.840Z,33.71
2023-04-09T12:11:58.639Z,33.61
2023-04-09T12:13:02.983Z,33.48
2023-04-09T12:14:06.231Z,33.59
2023-04-09T12:15:13.167Z,33.85
2023-04-09T12:16:16.514Z,33.91
2023-04-09T12:17:21.757Z,33.62
2023-04-09T12:18:25.078Z,34.19
2023-04-09T12:19:29.155Z,34.23
2023-04-09T12:20:36.318Z,34.23
2023-04-09T12:21:55.878Z,33.53
2023-04-09T12:23:01.118Z,33.35
2023-04-09T12:24:04.230Z,33.16
2023-04-09T12:25:07.622Z,33.29
2023-04-09T12:26:10.831Z,33.22
2023-04-09T12:27:13.848Z,33.20
2023-04-09T12:28:19.152Z,33.42
2023-04-09T12:29:22.538Z,33.83
2023-04-09T12:30:26.117Z,33.91
2023-04-09T12:31:29.256Z,33.18
2023-04-09T12:32:32.917Z,33.12
2023-04-09T12:33:38.961Z,33.09
2023-04-09T12:34:41.967Z,33.29
2023-04-09T12:35:45.527Z,33.61
2023-04-09T12:36:49.031Z,33.31
2023-04-09T12:37:52.478Z,33.52
2023-04-09T12:38:55.827Z,33.86
2023-04-09T12:39:59.015Z,33.89
2023-04-09T12:41:02.427Z,33.90
2023-04-09T12:42:05.709Z,33.91
2023-04-09T12:43:08.669Z,33.60
2023-04-09T12:44:11.570Z,33.31
2023-04-09T12:45:15.667Z,33.23
2023-04-09T12:46:19.458Z,33.11
2023-04-09T12:47:22.373Z,32.53
2023-04-09T12:48:25.445Z,31.43
2023-04-09T12:49:28.287Z,31.34
2023-04-09T12:50:31.285Z,31.69
2023-04-09T12:51:35.084Z,31.31
2023-04-09T12:52:38.389Z,31.09
2023-04-09T12:53:41.507Z,31.08
2023-04-09T12:54:44.979Z,30.75
2023-04-09T12:55:47.862Z,30.27
2023-04-09T12:56:52.072Z,30.12
2023-04-09T12:57:55.181Z,29.77
2023-04-09T12:58:58.412Z,29.44
2023-04-09T13:00:01.476Z,29.23
2023-04-09T13:01:05.415Z,28.94
2023-04-09T13:02:09.166Z,29.01
2023-04-09T13:03:12.869Z,29.10
2023-04-09T13:04:16.127Z,29.22
2023-04-09T13:05:19.004Z,29.15
2023-04-09T13:06:23.450Z,28.76
2023-04-09T13:07:29.766Z,28.94
2023-04-09T13:08:32.432Z,28.81
2023-04-09T13:09:36.058Z,28.43
2023-04-09T13:10:39.112Z,28.37
2023-04-09T13:11:41.830Z,28.12
2023-04-09T13:12:45.363Z,28.07
2023-04-09T13:13:48.826Z,28.18
2023-04-09T13:14:53.267Z,28.05
2023-04-09T13:15:57.345Z,27.70
2023-04-09T13:17:00.701Z,27.83
2023-04-09T13:18:04.090Z,28.02
2023-04-09T13:19:07.514Z,27.76
2023-04-09T13:20:10.775Z,27.80
2023-04-09T13:21:15.656Z,27.66
2023-04-09T13:22:19.208Z,27.58
2023-04-09T13:23:22.606Z,27.33
2023-04-09T13:24:25.766Z,27.24
2023-04-09T13:25:29.288Z,27.40
2023-04-09T13:26:32.629Z,27.33
2023-04-09T13:27:35.420Z,27.34
2023-04-09T13:28:39.090Z,26.74
2023-04-09T13:29:42.525Z,26.76
2023-04-09T13:30:45.896Z,26.91
2023-04-09T13:31:49.537Z,26.90
2023-04-09T13:32:53.030Z,26.86
2023-04-09T13:33:56.160Z,26.79
2023-04-09T13:34:59.661Z,26.79
2023-04-09T13:36:03.312Z,26.77
2023-04-09T13:37:06.594Z,26.79
2023-04-09T13:38:09.867Z,26.87
2023-04-09T13:39:13.626Z,26.85
2023-04-09T13:40:17.374Z,26.77
2023-04-09T13:41:20.824Z,26.62
2023-04-09T13:42:24.226Z,26.54
2023-04-09T13:43:29.395Z,26.60
2023-04-09T13:44:33.408Z,26.75
2023-04-09T13:45:36.592Z,26.49
2023-04-09T13:46:39.997Z,26.46
2023-04-09T13:47:43.983Z,26.48
2023-04-09T13:48:47.195Z,26.45
2023-04-09T13:49:52.531Z,26.35
2023-04-09T13:50:55.509Z,26.39
2023-04-09T13:51:58.843Z,26.49
2023-04-09T13:53:03.848Z,26.56
2023-04-09T13:54:08.566Z,26.61
2023-04-09T13:55:12.419Z,26.48
2023-04-09T13:56:16.316Z,26.51
2023-04-09T13:57:19.286Z,26.51